Terminal Aerodrome Forecast
Issued by NWS Jackson, KY

Home | Current Version | Previous Version | Text Only | Print | Product List | Glossary On
Versions: 1 2 3 4 5 6 7 8 9 10 11 12 13 14 15 16 17 18 19 20 21 22 23 24 25
000
FTUS43 KJKL 211100
TAFJKL
TAF
KJKL 211137Z 2112/2212 VRB03KT P6SM BKN250
     FM211600 25006KT P6SM VCTS SCT020CB BKN040
     FM220500 VRB03KT 4SM BR SCT250=

USA.gov is the U.S. government's official web portal to all federal, state and local government web resources and services.